<?xml version="1.0" encoding="UTF-8" standalone="no" ?>
<gpx xmlns="http://www.topografix.com/GPX/1/1" xmlns:xsi="http://www.w3.org/2001/XMLSchema-instance" xsi:schemaLocation="http://www.topografix.com/GPX/1/1 http://www.topografix.com/GPX/1/1/gpx.xsd" version="1.1" creator="VisuGPX - https://www.visugpx.com">
  <metadata>
    <name>Beaucouzé - CAP 10km</name>
    <desc><![CDATA[Départ hotel b&b, un peu de route pour le transfert puis très beau chemin dans les bois. Sympa.]]></desc>
  </metadata>
  <trk>
    <name><![CDATA[Sequence 4]]></name>
    <trkseg>
      <trkpt lat="47.45735" lon="-0.64123">
        <ele>69</ele>
        <time>2015-08-25T18:31:48Z</time>
      </trkpt>
      <trkpt lat="47.4574" lon="-0.64118">
        <ele>69</ele>
        <time>2015-08-25T18:31:54Z</time>
      </trkpt>
      <trkpt lat="47.45762" lon="-0.641">
        <ele>69</ele>
        <time>2015-08-25T18:32:03Z</time>
      </trkpt>
      <trkpt lat="47.45772" lon="-0.64093">
        <ele>68</ele>
        <time>2015-08-25T18:32:07Z</time>
      </trkpt>
      <trkpt lat="47.45782" lon="-0.64087">
        <ele>68</ele>
        <time>2015-08-25T18:32:12Z</time>
      </trkpt>
      <trkpt lat="47.45795" lon="-0.6408">
        <ele>68</ele>
        <time>2015-08-25T18:32:18Z</time>
      </trkpt>
      <trkpt lat="47.45807" lon="-0.64068">
        <ele>68</ele>
        <time>2015-08-25T18:32:24Z</time>
      </trkpt>
      <trkpt lat="47.45826" lon="-0.64046">
        <ele>67</ele>
        <time>2015-08-25T18:32:32Z</time>
      </trkpt>
      <trkpt lat="47.45836" lon="-0.64036">
        <ele>67</ele>
        <time>2015-08-25T18:32:36Z</time>
      </trkpt>
      <trkpt lat="47.45854" lon="-0.6402">
        <ele>66</ele>
        <time>2015-08-25T18:32:42Z</time>
      </trkpt>
      <trkpt lat="47.45863" lon="-0.64012">
        <ele>66</ele>
        <time>2015-08-25T18:32:48Z</time>
      </trkpt>
      <trkpt lat="47.45879" lon="-0.63993">
        <ele>65</ele>
        <time>2015-08-25T18:32:55Z</time>
      </trkpt>
      <trkpt lat="47.45891" lon="-0.63981">
        <ele>65</ele>
        <time>2015-08-25T18:33:00Z</time>
      </trkpt>
      <trkpt lat="47.45909" lon="-0.63958">
        <ele>65</ele>
        <time>2015-08-25T18:33:09Z</time>
      </trkpt>
      <trkpt lat="47.45917" lon="-0.63946">
        <ele>65</ele>
        <time>2015-08-25T18:33:13Z</time>
      </trkpt>
      <trkpt lat="47.45929" lon="-0.63936">
        <ele>64</ele>
        <time>2015-08-25T18:33:22Z</time>
      </trkpt>
      <trkpt lat="47.45935" lon="-0.6392">
        <ele>64</ele>
        <time>2015-08-25T18:33:28Z</time>
      </trkpt>
      <trkpt lat="47.45944" lon="-0.6391">
        <ele>64</ele>
        <time>2015-08-25T18:33:32Z</time>
      </trkpt>
      <trkpt lat="47.45953" lon="-0.63902">
        <ele>64</ele>
        <time>2015-08-25T18:33:37Z</time>
      </trkpt>
      <trkpt lat="47.45962" lon="-0.63897">
        <ele>64</ele>
        <time>2015-08-25T18:33:42Z</time>
      </trkpt>
      <trkpt lat="47.45975" lon="-0.63885">
        <ele>64</ele>
        <time>2015-08-25T18:33:48Z</time>
      </trkpt>
      <trkpt lat="47.45989" lon="-0.63875">
        <ele>63</ele>
        <time>2015-08-25T18:33:54Z</time>
      </trkpt>
      <trkpt lat="47.45998" lon="-0.63868">
        <ele>64</ele>
        <time>2015-08-25T18:34:02Z</time>
      </trkpt>
      <trkpt lat="47.46005" lon="-0.63864">
        <ele>64</ele>
        <time>2015-08-25T18:34:06Z</time>
      </trkpt>
      <trkpt lat="47.46024" lon="-0.63858">
        <ele>64</ele>
        <time>2015-08-25T18:34:13Z</time>
      </trkpt>
      <trkpt lat="47.46036" lon="-0.63856">
        <ele>65</ele>
        <time>2015-08-25T18:34:18Z</time>
      </trkpt>
      <trkpt lat="47.46052" lon="-0.63845">
        <ele>66</ele>
        <time>2015-08-25T18:34:24Z</time>
      </trkpt>
      <trkpt lat="47.46074" lon="-0.63825">
        <ele>67</ele>
        <time>2015-08-25T18:34:35Z</time>
      </trkpt>
      <trkpt lat="47.46084" lon="-0.63818">
        <ele>68</ele>
        <time>2015-08-25T18:34:38Z</time>
      </trkpt>
      <trkpt lat="47.46109" lon="-0.63797">
        <ele>70</ele>
        <time>2015-08-25T18:34:47Z</time>
      </trkpt>
      <trkpt lat="47.46111" lon="-0.63795">
        <ele>70</ele>
        <time>2015-08-25T18:34:48Z</time>
      </trkpt>
      <trkpt lat="47.46126" lon="-0.63779">
        <ele>71</ele>
        <time>2015-08-25T18:34:55Z</time>
      </trkpt>
      <trkpt lat="47.46132" lon="-0.63769">
        <ele>71</ele>
        <time>2015-08-25T18:35:00Z</time>
      </trkpt>
      <trkpt lat="47.46145" lon="-0.63759">
        <ele>72</ele>
        <time>2015-08-25T18:35:06Z</time>
      </trkpt>
      <trkpt lat="47.46158" lon="-0.63754">
        <ele>73</ele>
        <time>2015-08-25T18:35:12Z</time>
      </trkpt>
      <trkpt lat="47.46178" lon="-0.63732">
        <ele>74</ele>
        <time>2015-08-25T18:35:23Z</time>
      </trkpt>
      <trkpt lat="47.46181" lon="-0.63729">
        <ele>74</ele>
        <time>2015-08-25T18:35:25Z</time>
      </trkpt>
      <trkpt lat="47.46198" lon="-0.6371">
        <ele>75</ele>
        <time>2015-08-25T18:35:33Z</time>
      </trkpt>
      <trkpt lat="47.46203" lon="-0.63709">
        <ele>75</ele>
        <time>2015-08-25T18:35:36Z</time>
      </trkpt>
      <trkpt lat="47.46222" lon="-0.63688">
        <ele>75</ele>
        <time>2015-08-25T18:35:47Z</time>
      </trkpt>
      <trkpt lat="47.4623" lon="-0.63679">
        <ele>75</ele>
        <time>2015-08-25T18:35:52Z</time>
      </trkpt>
      <trkpt lat="47.46235" lon="-0.63673">
        <ele>75</ele>
        <time>2015-08-25T18:35:54Z</time>
      </trkpt>
      <trkpt lat="47.46253" lon="-0.63657">
        <ele>76</ele>
        <time>2015-08-25T18:36:00Z</time>
      </trkpt>
      <trkpt lat="47.46274" lon="-0.63641">
        <ele>77</ele>
        <time>2015-08-25T18:36:09Z</time>
      </trkpt>
      <trkpt lat="47.46291" lon="-0.6364">
        <ele>79</ele>
        <time>2015-08-25T18:36:17Z</time>
      </trkpt>
      <trkpt lat="47.46293" lon="-0.6364">
        <ele>79</ele>
        <time>2015-08-25T18:36:18Z</time>
      </trkpt>
      <trkpt lat="47.46313" lon="-0.6364">
        <ele>80</ele>
        <time>2015-08-25T18:36:29Z</time>
      </trkpt>
      <trkpt lat="47.46321" lon="-0.63643">
        <ele>80</ele>
        <time>2015-08-25T18:36:34Z</time>
      </trkpt>
      <trkpt lat="47.46325" lon="-0.63644">
        <ele>80</ele>
        <time>2015-08-25T18:36:36Z</time>
      </trkpt>
      <trkpt lat="47.46335" lon="-0.63648">
        <ele>81</ele>
        <time>2015-08-25T18:36:42Z</time>
      </trkpt>
      <trkpt lat="47.46362" lon="-0.63664">
        <ele>81</ele>
        <time>2015-08-25T18:36:52Z</time>
      </trkpt>
      <trkpt lat="47.46369" lon="-0.63669">
        <ele>81</ele>
        <time>2015-08-25T18:36:55Z</time>
      </trkpt>
      <trkpt lat="47.46382" lon="-0.63677">
        <ele>81</ele>
        <time>2015-08-25T18:37:00Z</time>
      </trkpt>
      <trkpt lat="47.46404" lon="-0.63691">
        <ele>82</ele>
        <time>2015-08-25T18:37:09Z</time>
      </trkpt>
      <trkpt lat="47.46412" lon="-0.63699">
        <ele>82</ele>
        <time>2015-08-25T18:37:13Z</time>
      </trkpt>
      <trkpt lat="47.46419" lon="-0.6371">
        <ele>82</ele>
        <time>2015-08-25T18:37:18Z</time>
      </trkpt>
      <trkpt lat="47.46439" lon="-0.63738">
        <ele>83</ele>
        <time>2015-08-25T18:37:27Z</time>
      </trkpt>
      <trkpt lat="47.46459" lon="-0.63735">
        <ele>83</ele>
        <time>2015-08-25T18:37:34Z</time>
      </trkpt>
      <trkpt lat="47.46474" lon="-0.63732">
        <ele>83</ele>
        <time>2015-08-25T18:37:38Z</time>
      </trkpt>
      <trkpt lat="47.46494" lon="-0.63727">
        <ele>83</ele>
        <time>2015-08-25T18:37:44Z</time>
      </trkpt>
      <trkpt lat="47.46508" lon="-0.63722">
        <ele>83</ele>
        <time>2015-08-25T18:37:49Z</time>
      </trkpt>
      <trkpt lat="47.46521" lon="-0.63714">
        <ele>83</ele>
        <time>2015-08-25T18:37:56Z</time>
      </trkpt>
      <trkpt lat="47.46546" lon="-0.63692">
        <ele>82</ele>
        <time>2015-08-25T18:38:04Z</time>
      </trkpt>
      <trkpt lat="47.46564" lon="-0.63682">
        <ele>81</ele>
        <time>2015-08-25T18:38:09Z</time>
      </trkpt>
      <trkpt lat="47.46571" lon="-0.6368">
        <ele>81</ele>
        <time>2015-08-25T18:38:12Z</time>
      </trkpt>
      <trkpt lat="47.46581" lon="-0.63679">
        <ele>81</ele>
        <time>2015-08-25T18:38:18Z</time>
      </trkpt>
      <trkpt lat="47.46595" lon="-0.6367">
        <ele>81</ele>
        <time>2015-08-25T18:38:24Z</time>
      </trkpt>
      <trkpt lat="47.46622" lon="-0.63657">
        <ele>80</ele>
        <time>2015-08-25T18:38:34Z</time>
      </trkpt>
      <trkpt lat="47.46627" lon="-0.63654">
        <ele>79</ele>
        <time>2015-08-25T18:38:36Z</time>
      </trkpt>
      <trkpt lat="47.4664" lon="-0.63643">
        <ele>79</ele>
        <time>2015-08-25T18:38:42Z</time>
      </trkpt>
      <trkpt lat="47.46652" lon="-0.63639">
        <ele>78</ele>
        <time>2015-08-25T18:38:53Z</time>
      </trkpt>
    </trkseg>
  </trk>
</gpx>